Time;durP1;ratioP1;P1;durP2;ratioP2;P2;SDS_P1;SDS_P2;PMS_P1;PMS_P2;Temp;Humidity;BMP_temperature;BMP_pressure;BME280_temperature;BME280_humidity;BME280_pressure;Samples;Min_cycle;Max_cycle;Signal;HPM_P1;HPM_P2
2023/10/12 00:01:57;;;;;;;18.13;2.90;;;;;;;;;;5031570;28;20419;-75
2023/10/12 00:04:25;;;;;;;17.13;3.00;;;;;;;;;;5037576;28;20407;-72
2023/10/12 00:06:53;;;;;;;18.73;3.30;;;;;;;;;;5033644;28;20473;-76
2023/10/12 00:09:24;;;;;;;20.02;3.20;;;;;;;;;;5037278;28;20411;-76
2023/10/12 00:12:07;;;;;;;17.73;3.08;;;;;;;;;;5037248;28;20911;-76
2023/10/12 00:14:34;;;;;;;20.15;3.60;;;;;;;;;;5037647;28;20890;-77
2023/10/12 00:17:01;;;;;;;19.50;3.58;;;;;;;;;;5051792;28;20761;-77
2023/10/12 00:19:28;;;;;;;20.92;3.10;;;;;;;;;;5031125;28;20425;-73
2023/10/12 00:22:01;;;;;;;18.85;3.10;;;;;;;;;;5031506;28;20507;-73
2023/10/12 00:24:28;;;;;;;18.73;3.28;;;;;;;;;;5025958;28;20787;-73
2023/10/12 00:26:54;;;;;;;17.83;3.20;;;;;;;;;;5032276;28;20473;-74
2023/10/12 00:29:22;;;;;;;19.95;2.67;;;;;;;;;;5024935;28;20414;-73
2023/10/12 00:31:49;;;;;;;22.02;3.20;;;;;;;;;;5047209;28;20783;-74
2023/10/12 00:34:22;;;;;;;22.33;3.00;;;;;;;;;;5022050;28;20870;-73
2023/10/12 00:36:52;;;;;;;19.27;2.65;;;;;;;;;;5030270;28;20900;-75
2023/10/12 00:39:27;;;;;;;19.50;3.90;;;;;;;;;;5045355;28;20907;-76
2023/10/12 00:41:55;;;;;;;20.00;2.83;;;;;;;;;;5036888;28;20475;-77
2023/10/12 00:44:28;;;;;;;17.27;3.10;;;;;;;;;;5033786;28;20398;-77
2023/10/12 00:49:27;;;;;;;21.10;3.13;;;;;;;;;;5032786;28;20849;-79
2023/10/12 00:52:07;;;;;;;19.17;3.30;;;;;;;;;;5031183;28;20460;-75
2023/10/12 01:08:46;;;;;;;19.98;3.28;;;;;;;;;;5036048;28;20411;-76
2023/10/12 01:11:20;;;;;;;18.23;3.60;;;;;;;;;;5032906;28;20780;-77
2023/10/12 01:13:48;;;;;;;19.35;3.20;;;;;;;;;;5032868;28;20407;-76
2023/10/12 01:16:28;;;;;;;22.77;3.67;;;;;;;;;;5036216;28;20466;-76
2023/10/12 01:19:01;;;;;;;21.00;3.40;;;;;;;;;;5032450;28;20434;-76
2023/10/12 01:21:29;;;;;;;19.35;3.88;;;;;;;;;;5032664;28;20502;-75
2023/10/12 01:24:02;;;;;;;20.52;4.22;;;;;;;;;;5045132;28;20407;-76
2023/10/12 01:26:31;;;;;;;18.90;4.13;;;;;;;;;;5030847;28;20415;-76
2023/10/12 01:28:59;;;;;;;18.47;3.60;;;;;;;;;;5052629;28;20479;-76
2023/10/12 01:31:29;;;;;;;18.93;3.07;;;;;;;;;;5035486;28;20414;-77
2023/10/12 01:33:57;;;;;;;19.10;3.25;;;;;;;;;;5037122;28;20772;-76
2023/10/12 01:36:30;;;;;;;19.63;3.60;;;;;;;;;;5038014;28;20415;-77
2023/10/12 01:39:16;;;;;;;18.17;3.10;;;;;;;;;;5034626;28;20421;-78
2023/10/12 01:41:42;;;;;;;18.20;3.10;;;;;;;;;;5046168;28;20499;-76
2023/10/12 01:44:10;;;;;;;19.55;3.00;;;;;;;;;;5037368;28;20414;-76
2023/10/12 01:46:39;;;;;;;18.90;3.70;;;;;;;;;;5035067;28;20469;-75
2023/10/12 01:49:08;;;;;;;18.55;3.00;;;;;;;;;;5022770;28;20934;-78
2023/10/12 01:51:44;;;;;;;19.00;3.20;;;;;;;;;;5032163;28;20407;-76
2023/10/12 01:54:21;;;;;;;20.13;3.35;;;;;;;;;;5034451;28;20403;-77
2023/10/12 01:56:51;;;;;;;17.80;2.80;;;;;;;;;;5017957;28;20901;-76
2023/10/12 01:59:19;;;;;;;18.55;3.10;;;;;;;;;;5036299;28;20418;-74
2023/10/12 02:01:47;;;;;;;18.42;2.70;;;;;;;;;;5034026;28;20418;-76
2023/10/12 02:04:14;;;;;;;19.00;2.92;;;;;;;;;;5035776;28;20431;-77
2023/10/12 02:06:42;;;;;;;18.57;3.03;;;;;;;;;;5033072;28;20524;-78
2023/10/12 02:09:10;;;;;;;16.67;2.80;;;;;;;;;;5032573;28;20731;-76
2023/10/12 02:11:53;;;;;;;16.88;2.58;;;;;;;;;;5033989;28;20422;-76
2023/10/12 02:17:18;;;;;;;20.70;3.33;;;;;;;;;;5026528;28;20550;-76
2023/10/12 02:19:44;;;;;;;17.10;3.08;;;;;;;;;;5040813;28;20824;-77
2023/10/12 02:22:23;;;;;;;16.95;3.22;;;;;;;;;;5033935;28;20403;-76
2023/10/12 02:25:18;;;;;;;18.60;2.95;;;;;;;;;;5048492;28;20443;-77
2023/10/12 02:27:56;;;;;;;18.63;3.10;;;;;;;;;;5030995;28;20401;-79
2023/10/12 02:30:29;;;;;;;19.52;3.28;;;;;;;;;;5050037;28;20503;-78
2023/10/12 02:33:00;;;;;;;21.15;4.15;;;;;;;;;;5034197;28;20929;-77
2023/10/12 02:35:36;;;;;;;18.25;4.25;;;;;;;;;;5033919;28;20411;-76
2023/10/12 02:38:04;;;;;;;16.50;2.97;;;;;;;;;;5031316;28;20434;-76
2023/10/12 02:40:33;;;;;;;17.98;3.70;;;;;;;;;;5032872;28;20825;-77
2023/10/12 02:43:06;;;;;;;18.58;3.10;;;;;;;;;;5033280;28;20451;-78
2023/10/12 02:45:34;;;;;;;17.08;3.88;;;;;;;;;;5028829;28;20835;-75
2023/10/12 02:48:05;;;;;;;20.55;3.42;;;;;;;;;;5033461;28;20411;-74
2023/10/12 02:50:42;;;;;;;22.13;4.32;;;;;;;;;;5031024;28;20754;-75
2023/10/12 02:53:12;;;;;;;19.55;3.53;;;;;;;;;;5032435;28;20705;-76
2023/10/12 02:55:43;;;;;;;20.13;4.00;;;;;;;;;;5032282;28;20423;-76
2023/10/12 02:58:20;;;;;;;28.92;4.40;;;;;;;;;;5044957;28;20888;-77
2023/10/12 03:00:47;;;;;;;17.70;3.63;;;;;;;;;;5033529;28;20508;-77
2023/10/12 03:03:31;;;;;;;21.15;3.60;;;;;;;;;;5032685;28;20435;-76
2023/10/12 03:06:07;;;;;;;20.08;3.92;;;;;;;;;;5046670;28;20797;-77
2023/10/12 03:08:46;;;;;;;18.40;3.90;;;;;;;;;;5032196;28;20819;-75
2023/10/12 03:11:15;;;;;;;19.30;3.75;;;;;;;;;;5037146;28;20403;-75
2023/10/12 03:13:54;;;;;;;18.40;3.97;;;;;;;;;;5034005;28;20475;-74
2023/10/12 03:16:22;;;;;;;20.55;4.57;;;;;;;;;;5040365;28;21275;-77
2023/10/12 03:18:57;;;;;;;23.75;5.20;;;;;;;;;;5031762;28;20501;-76
2023/10/12 03:21:27;;;;;;;18.30;3.75;;;;;;;;;;5020961;28;20411;-76
2023/10/12 03:23:57;;;;;;;18.90;3.92;;;;;;;;;;5032818;28;20900;-77
2023/10/12 03:26:24;;;;;;;18.38;3.90;;;;;;;;;;5040946;28;20403;-80
2023/10/12 03:28:58;;;;;;;18.80;4.10;;;;;;;;;;5036309;28;20510;-77
2023/10/12 03:31:34;;;;;;;18.63;3.83;;;;;;;;;;5014783;28;20812;-77
2023/10/12 03:34:01;;;;;;;19.27;4.38;;;;;;;;;;5047816;28;20428;-76
2023/10/12 03:36:36;;;;;;;21.00;3.83;;;;;;;;;;5012255;28;20735;-77
2023/10/12 03:39:58;;;;;;;20.65;4.57;;;;;;;;;;5030992;28;20438;-77
2023/10/12 03:47:15;;;;;;;23.30;5.10;;;;;;;;;;5033044;28;20807;-77
2023/10/12 03:49:57;;;;;;;21.77;4.20;;;;;;;;;;5045587;28;20448;-78
2023/10/12 03:52:29;;;;;;;19.60;4.47;;;;;;;;;;5045853;28;20423;-77
2023/10/12 03:58:00;;;;;;;19.77;5.28;;;;;;;;;;5032220;28;20411;-78
2023/10/12 04:02:53;;;;;;;20.87;4.60;;;;;;;;;;5031474;28;20537;-77
2023/10/12 04:05:34;;;;;;;18.95;4.53;;;;;;;;;;5035421;28;20908;-76
2023/10/12 04:08:12;;;;;;;20.00;4.43;;;;;;;;;;5031875;28;20419;-77
2023/10/12 04:18:32;;;;;;;19.90;4.97;;;;;;;;;;5027007;28;20403;-77
2023/10/12 04:20:59;;;;;;;19.33;4.80;;;;;;;;;;5047128;28;20419;-75
2023/10/12 04:23:46;;;;;;;22.00;4.60;;;;;;;;;;5031265;28;20957;-78
2023/10/12 04:28:40;;;;;;;19.70;4.97;;;;;;;;;;5032275;28;20498;-76
2023/10/12 04:33:44;;;;;;;19.38;5.13;;;;;;;;;;5031171;28;20415;-77
2023/10/12 04:36:21;;;;;;;21.48;4.85;;;;;;;;;;5028563;28;20826;-77
2023/10/12 04:38:56;;;;;;;22.50;4.40;;;;;;;;;;5031713;28;20407;-77
2023/10/12 04:41:25;;;;;;;23.13;5.10;;;;;;;;;;5028949;28;20403;-78
2023/10/12 04:44:06;;;;;;;19.37;5.27;;;;;;;;;;5021361;28;20502;-79
2023/10/12 04:46:47;;;;;;;22.73;5.00;;;;;;;;;;5029938;28;20406;-76
2023/10/12 04:51:50;;;;;;;26.02;5.60;;;;;;;;;;5030668;28;20403;-75
2023/10/12 04:54:26;;;;;;;20.07;4.90;;;;;;;;;;5030802;28;20431;-79
2023/10/12 04:57:14;;;;;;;20.30;4.75;;;;;;;;;;5027669;28;20915;-78
2023/10/12 05:03:22;;;;;;;20.85;4.60;;;;;;;;;;5027744;28;20405;-78
2023/10/12 05:07:40;;;;;;;22.00;4.75;;;;;;;;;;5030664;28;20468;-76
2023/10/12 05:10:15;;;;;;;20.07;5.07;;;;;;;;;;5028147;28;20411;-79
2023/10/12 05:12:42;;;;;;;21.73;4.90;;;;;;;;;;5044738;28;20527;-78
2023/10/12 05:15:11;;;;;;;22.27;5.10;;;;;;;;;;5034554;28;20418;-78
2023/10/12 05:17:39;;;;;;;21.35;4.70;;;;;;;;;;5037395;28;20415;-79
2023/10/12 05:20:06;;;;;;;21.15;5.00;;;;;;;;;;5029713;28;20406;-80
2023/10/12 05:22:35;;;;;;;22.15;6.03;;;;;;;;;;5036594;28;20511;-77
2023/10/12 05:25:03;;;;;;;22.48;5.57;;;;;;;;;;5041579;28;20473;-78
2023/10/12 05:27:38;;;;;;;22.48;5.22;;;;;;;;;;5038931;28;20981;-79
2023/10/12 05:30:14;;;;;;;23.27;5.45;;;;;;;;;;5033009;28;20403;-80
2023/10/12 05:32:43;;;;;;;23.70;5.32;;;;;;;;;;5030868;28;20899;-80
2023/10/12 05:35:16;;;;;;;22.98;5.82;;;;;;;;;;5038395;28;20444;-80
2023/10/12 05:37:48;;;;;;;22.33;5.50;;;;;;;;;;5039978;28;20411;-81
2023/10/12 05:40:15;;;;;;;21.42;5.38;;;;;;;;;;5020864;28;20884;-80
2023/10/12 05:42:46;;;;;;;21.27;5.37;;;;;;;;;;5036556;28;20438;-79
2023/10/12 05:45:27;;;;;;;24.25;5.68;;;;;;;;;;5038086;28;20461;-80
2023/10/12 05:47:55;;;;;;;23.77;5.20;;;;;;;;;;5039194;28;20811;-81
2023/10/12 05:50:25;;;;;;;23.63;5.80;;;;;;;;;;5011640;28;20415;-79
2023/10/12 05:52:53;;;;;;;23.40;5.68;;;;;;;;;;5051879;28;20425;-80
2023/10/12 05:55:21;;;;;;;21.13;5.35;;;;;;;;;;5034922;28;20403;-79
2023/10/12 05:57:51;;;;;;;23.00;5.50;;;;;;;;;;5032703;28;20431;-77
2023/10/12 06:00:35;;;;;;;26.42;5.93;;;;;;;;;;5021240;28;20412;-80
2023/10/12 06:03:10;;;;;;;22.20;6.20;;;;;;;;;;5034135;28;20411;-77
2023/10/12 06:05:37;;;;;;;25.95;5.78;;;;;;;;;;5033173;28;20415;-78
2023/10/12 06:08:04;;;;;;;22.90;5.72;;;;;;;;;;5031442;28;20418;-78
2023/10/12 06:10:31;;;;;;;23.73;5.43;;;;;;;;;;5029406;28;20414;-78
2023/10/12 06:12:58;;;;;;;24.40;6.55;;;;;;;;;;5023761;28;20427;-78
2023/10/12 06:15:25;;;;;;;22.55;5.80;;;;;;;;;;5033785;28;20443;-77
2023/10/12 06:17:55;;;;;;;25.33;6.43;;;;;;;;;;5041742;28;20458;-77
2023/10/12 06:20:36;;;;;;;21.95;6.20;;;;;;;;;;5033325;28;20410;-78
2023/10/12 06:23:08;;;;;;;21.38;6.07;;;;;;;;;;5034468;28;20406;-77
2023/10/12 06:25:37;;;;;;;23.90;5.88;;;;;;;;;;5034257;28;20417;-77
2023/10/12 06:28:06;;;;;;;22.58;5.68;;;;;;;;;;5033035;28;20402;-77
2023/10/12 06:30:34;;;;;;;25.58;6.00;;;;;;;;;;5029917;28;20404;-76
2023/10/12 06:33:02;;;;;;;22.35;5.65;;;;;;;;;;5038479;28;20505;-76
2023/10/12 06:35:33;;;;;;;25.23;5.85;;;;;;;;;;5031498;28;20443;-76
2023/10/12 06:38:15;;;;;;;22.77;6.15;;;;;;;;;;5032397;28;20419;-74
2023/10/12 06:40:48;;;;;;;24.35;5.93;;;;;;;;;;5034143;28;20407;-75
2023/10/12 06:45:52;;;;;;;21.92;6.07;;;;;;;;;;5034329;28;20843;-75
2023/10/12 06:51:02;;;;;;;24.85;6.15;;;;;;;;;;5048796;28;20403;-73
2023/10/12 06:53:33;;;;;;;25.88;6.78;;;;;;;;;;5032004;28;20512;-76
2023/10/12 06:56:15;;;;;;;24.30;7.20;;;;;;;;;;5040379;28;20468;-76
2023/10/12 06:58:43;;;;;;;21.90;6.32;;;;;;;;;;5022930;28;20862;-76
2023/10/12 07:01:27;;;;;;;22.58;6.50;;;;;;;;;;5028549;28;20425;-75
2023/10/12 07:03:54;;;;;;;27.50;6.30;;;;;;;;;;5026772;28;20500;-77
2023/10/12 07:06:22;;;;;;;24.35;6.57;;;;;;;;;;5031766;28;20429;-76
2023/10/12 07:08:51;;;;;;;23.67;6.90;;;;;;;;;;5027950;28;20479;-76
2023/10/12 07:11:17;;;;;;;21.70;6.10;;;;;;;;;;5034520;28;20416;-75
2023/10/12 07:13:45;;;;;;;23.90;6.35;;;;;;;;;;5033083;28;20852;-74
2023/10/12 07:16:16;;;;;;;22.40;6.22;;;;;;;;;;5033521;28;20419;-73
2023/10/12 07:18:43;;;;;;;23.17;7.07;;;;;;;;;;5048127;28;20496;-72
2023/10/12 07:21:32;;;;;;;23.70;6.45;;;;;;;;;;5031309;28;20775;-75
2023/10/12 07:24:01;;;;;;;23.63;6.10;;;;;;;;;;5031270;28;20406;-74
2023/10/12 07:26:30;;;;;;;23.90;7.70;;;;;;;;;;5030899;28;20407;-74
2023/10/12 07:28:57;;;;;;;24.70;6.07;;;;;;;;;;5040214;28;20442;-73
2023/10/12 07:31:41;;;;;;;21.43;6.27;;;;;;;;;;5027392;28;20491;-73
2023/10/12 07:34:13;;;;;;;20.92;6.15;;;;;;;;;;5033017;28;20961;-74
2023/10/12 07:39:17;;;;;;;24.05;6.38;;;;;;;;;;5032313;28;20442;-73
2023/10/12 07:41:53;;;;;;;23.38;6.07;;;;;;;;;;5035959;28;20505;-75
2023/10/12 07:44:21;;;;;;;23.48;6.60;;;;;;;;;;5031910;28;20398;-72
2023/10/12 07:46:48;;;;;;;23.65;6.25;;;;;;;;;;5028697;28;20406;-71
2023/10/12 07:51:59;;;;;;;24.75;6.40;;;;;;;;;;5045763;28;20446;-73
2023/10/12 07:57:12;;;;;;;23.67;6.30;;;;;;;;;;5044706;28;20415;-74
2023/10/12 07:59:48;;;;;;;24.02;5.90;;;;;;;;;;5036609;28;20435;-74
2023/10/12 08:02:15;;;;;;;23.77;6.07;;;;;;;;;;5029807;28;20807;-74
2023/10/12 08:04:58;;;;;;;21.30;6.20;;;;;;;;;;5034452;28;20442;-74
2023/10/12 08:07:55;;;;;;;25.40;5.63;;;;;;;;;;5046021;28;20446;-73
2023/10/12 08:10:17;;;;;;;24.47;6.80;;;;;;;;;;5031473;28;20884;-73
2023/10/12 08:12:45;;;;;;;21.88;6.50;;;;;;;;;;5030160;28;20399;-73
2023/10/12 08:15:15;;;;;;;24.42;6.28;;;;;;;;;;4999255;28;20420;-73
2023/10/12 08:17:45;;;;;;;25.10;7.33;;;;;;;;;;5027033;28;20419;-73
2023/10/12 08:23:02;;;;;;;25.83;6.50;;;;;;;;;;5028679;28;20469;-73
2023/10/12 08:25:38;;;;;;;22.95;6.10;;;;;;;;;;5030098;28;20402;-73
2023/10/12 08:28:18;;;;;;;23.83;6.78;;;;;;;;;;5030469;28;20772;-73
2023/10/12 08:30:57;;;;;;;26.08;6.30;;;;;;;;;;5031354;28;20848;-72
2023/10/12 08:33:48;;;;;;;22.45;5.68;;;;;;;;;;5031343;28;20500;-73
2023/10/12 08:38:52;;;;;;;24.02;5.85;;;;;;;;;;5026814;28;20403;-74
2023/10/12 08:41:28;;;;;;;21.15;5.88;;;;;;;;;;5031049;28;20441;-73
2023/10/12 08:43:59;;;;;;;23.50;5.57;;;;;;;;;;5029358;28;20427;-73
2023/10/12 08:52:18;;;;;;;24.97;6.43;;;;;;;;;;5030034;28;20438;-73
2023/10/12 08:54:51;;;;;;;20.87;6.07;;;;;;;;;;5028924;28;20427;-74
2023/10/12 08:57:32;;;;;;;20.83;5.60;;;;;;;;;;5026701;28;20407;-74
2023/10/12 09:02:49;;;;;;;22.80;5.32;;;;;;;;;;5029795;28;20457;-74
2023/10/12 09:05:24;;;;;;;22.60;5.53;;;;;;;;;;5038630;28;20872;-73
2023/10/12 09:08:05;;;;;;;20.38;5.10;;;;;;;;;;5027150;28;20415;-73
2023/10/12 09:13:19;;;;;;;19.73;5.63;;;;;;;;;;5028037;28;20445;-72
2023/10/12 09:15:48;;;;;;;20.80;5.53;;;;;;;;;;5030827;28;20944;-74
2023/10/12 09:18:18;;;;;;;23.73;6.03;;;;;;;;;;5031969;28;20888;-73
2023/10/12 09:28:53;;;;;;;25.05;5.93;;;;;;;;;;5029387;28;20480;-71
2023/10/12 09:36:29;;;;;;;20.30;4.90;;;;;;;;;;5030468;28;20494;-72
2023/10/12 09:38:57;;;;;;;23.58;5.65;;;;;;;;;;5029093;28;20414;-73
2023/10/12 09:41:27;;;;;;;21.60;5.47;;;;;;;;;;5029743;28;20457;-73
2023/10/12 09:43:56;;;;;;;21.05;5.10;;;;;;;;;;5029158;28;20403;-71
2023/10/12 09:46:25;;;;;;;22.98;5.68;;;;;;;;;;5029441;28;20779;-73
2023/10/12 09:48:57;;;;;;;24.65;5.75;;;;;;;;;;5019797;28;20477;-72
2023/10/12 09:51:25;;;;;;;22.23;5.50;;;;;;;;;;5032247;28;20410;-74
2023/10/12 09:53:58;;;;;;;24.02;6.50;;;;;;;;;;5033308;28;20406;-74
2023/10/12 09:56:28;;;;;;;23.33;6.70;;;;;;;;;;5024279;28;20471;-71
2023/10/12 09:59:07;;;;;;;21.85;5.60;;;;;;;;;;5032289;28;20518;-72
2023/10/12 10:04:27;;;;;;;22.40;6.00;;;;;;;;;;5036532;28;20407;-70
2023/10/12 10:07:08;;;;;;;22.52;4.75;;;;;;;;;;5031011;28;20422;-71
2023/10/12 10:12:04;;;;;;;20.52;5.60;;;;;;;;;;5034386;28;20449;-75
2023/10/12 10:14:35;;;;;;;21.23;5.80;;;;;;;;;;5036792;28;20440;-73
2023/10/12 10:17:02;;;;;;;21.90;5.40;;;;;;;;;;5021764;28;20865;-71
2023/10/12 10:19:29;;;;;;;20.73;5.25;;;;;;;;;;5037545;28;20411;-73
2023/10/12 10:22:05;;;;;;;21.83;4.90;;;;;;;;;;5033468;28;20498;-73
2023/10/12 10:24:45;;;;;;;21.02;5.75;;;;;;;;;;5034769;28;20602;-73
2023/10/12 10:27:13;;;;;;;23.00;4.80;;;;;;;;;;5034327;28;20417;-71
2023/10/12 10:29:53;;;;;;;20.92;4.90;;;;;;;;;;5032469;28;20410;-72
2023/10/12 10:32:29;;;;;;;20.20;5.32;;;;;;;;;;5047419;28;20428;-73
2023/10/12 10:34:58;;;;;;;25.73;5.80;;;;;;;;;;5033543;28;20425;-72
2023/10/12 10:37:47;;;;;;;23.35;4.47;;;;;;;;;;5033610;28;20970;-74
2023/10/12 10:40:17;;;;;;;21.70;5.13;;;;;;;;;;5030959;28;20403;-73
2023/10/12 10:42:57;;;;;;;22.33;4.40;;;;;;;;;;5031196;28;20409;-72
2023/10/12 10:45:27;;;;;;;18.43;4.50;;;;;;;;;;5033712;28;20403;-74
2023/10/12 10:47:56;;;;;;;23.10;5.38;;;;;;;;;;5034164;28;20406;-74
2023/10/12 10:50:26;;;;;;;20.67;5.20;;;;;;;;;;5035688;28;20497;-76
2023/10/12 10:52:59;;;;;;;21.35;5.40;;;;;;;;;;5024502;28;20427;-73
2023/10/12 10:55:31;;;;;;;21.98;5.72;;;;;;;;;;5036808;28;20434;-76
2023/10/12 10:58:00;;;;;;;18.20;4.65;;;;;;;;;;5051614;28;20445;-77
2023/10/12 11:00:37;;;;;;;21.50;5.78;;;;;;;;;;5033237;28;20891;-77
2023/10/12 11:03:04;;;;;;;19.25;5.10;;;;;;;;;;5039766;28;20399;-75
2023/10/12 11:05:30;;;;;;;20.50;4.50;;;;;;;;;;5035126;28;20464;-74
2023/10/12 11:08:18;;;;;;;19.70;4.73;;;;;;;;;;5034945;28;20502;-76
2023/10/12 11:13:31;;;;;;;18.92;4.30;;;;;;;;;;5032493;28;20418;-76
2023/10/12 11:16:05;;;;;;;18.80;4.50;;;;;;;;;;5035099;28;20430;-75
2023/10/12 11:18:31;;;;;;;20.02;4.20;;;;;;;;;;5033544;28;20431;-77
2023/10/12 11:21:00;;;;;;;22.05;4.80;;;;;;;;;;5035687;28;20457;-75
2023/10/12 11:23:27;;;;;;;20.57;5.00;;;;;;;;;;5032262;28;20442;-78
2023/10/12 11:26:04;;;;;;;22.40;5.13;;;;;;;;;;5034506;28;20407;-74
2023/10/12 11:28:33;;;;;;;21.02;4.80;;;;;;;;;;5017250;28;20426;-75
2023/10/12 11:31:20;;;;;;;20.83;4.72;;;;;;;;;;5034307;28;20391;-73
2023/10/12 11:33:48;;;;;;;18.20;3.90;;;;;;;;;;5017751;28;20405;-76
2023/10/12 11:36:19;;;;;;;20.00;4.78;;;;;;;;;;5035379;28;20490;-76
2023/10/12 11:38:49;;;;;;;21.38;4.30;;;;;;;;;;5034362;28;20451;-72
2023/10/12 11:41:16;;;;;;;23.42;5.20;;;;;;;;;;5029989;28;20415;-76
2023/10/12 11:43:49;;;;;;;20.42;4.93;;;;;;;;;;5033526;28;20442;-72
2023/10/12 11:46:18;;;;;;;21.13;4.97;;;;;;;;;;5031561;28;20908;-74
2023/10/12 11:48:59;;;;;;;20.48;4.05;;;;;;;;;;5031104;28;20880;-73
2023/10/12 11:51:26;;;;;;;21.70;4.65;;;;;;;;;;5030738;28;20465;-71
2023/10/12 11:53:53;;;;;;;20.00;4.10;;;;;;;;;;5028464;28;20471;-73
2023/10/12 11:56:22;;;;;;;19.20;3.92;;;;;;;;;;5040429;28;20458;-75
2023/10/12 11:58:55;;;;;;;20.60;4.63;;;;;;;;;;5040495;28;20811;-76
2023/10/12 12:01:27;;;;;;;17.95;4.07;;;;;;;;;;5039012;28;20505;-76
2023/10/12 12:03:54;;;;;;;19.63;4.38;;;;;;;;;;5038772;28;20414;-76
2023/10/12 12:06:22;;;;;;;18.17;3.30;;;;;;;;;;5033959;28;20512;-75
2023/10/12 12:08:49;;;;;;;20.83;4.30;;;;;;;;;;5036217;28;20545;-76
2023/10/12 12:11:31;;;;;;;21.05;3.40;;;;;;;;;;5035712;28;20411;-74
2023/10/12 12:13:58;;;;;;;18.15;4.80;;;;;;;;;;5034665;28;20463;-76
2023/10/12 12:16:26;;;;;;;18.23;3.90;;;;;;;;;;5034842;28;20472;-77
2023/10/12 12:18:53;;;;;;;20.60;3.80;;;;;;;;;;5034614;28;20490;-77
2023/10/12 12:21:31;;;;;;;19.80;3.92;;;;;;;;;;5032255;28;20421;-72
2023/10/12 12:24:15;;;;;;;18.90;4.40;;;;;;;;;;5034110;28;20410;-77
2023/10/12 12:26:45;;;;;;;22.30;4.30;;;;;;;;;;5030287;28;20502;-76
2023/10/12 12:29:16;;;;;;;18.95;4.30;;;;;;;;;;5018846;28;20439;-75
2023/10/12 12:31:44;;;;;;;23.35;4.65;;;;;;;;;;5036096;28;20519;-76
2023/10/12 12:34:18;;;;;;;18.73;4.00;;;;;;;;;;5038550;28;20430;-76
2023/10/12 12:36:48;;;;;;;18.75;4.00;;;;;;;;;;5026793;28;20443;-77
2023/10/12 12:39:21;;;;;;;24.00;4.73;;;;;;;;;;5034455;28;20403;-75
2023/10/12 12:41:48;;;;;;;20.90;4.40;;;;;;;;;;5035377;28;20493;-76
2023/10/12 12:44:16;;;;;;;22.65;4.20;;;;;;;;;;5032098;28;20493;-75
2023/10/12 12:46:45;;;;;;;20.50;4.97;;;;;;;;;;5029535;28;20468;-75
2023/10/12 12:49:13;;;;;;;18.25;3.80;;;;;;;;;;5042816;28;20439;-76
2023/10/12 12:51:40;;;;;;;19.67;3.67;;;;;;;;;;5027460;28;20894;-75
2023/10/12 12:54:07;;;;;;;19.95;4.05;;;;;;;;;;5030526;28;20427;-75
2023/10/12 12:56:36;;;;;;;18.60;3.47;;;;;;;;;;5017827;28;20425;-73
2023/10/12 12:59:04;;;;;;;19.15;3.65;;;;;;;;;;5010722;28;20417;-74
2023/10/12 13:01:31;;;;;;;18.67;3.50;;;;;;;;;;5011054;28;20418;-75
2023/10/12 13:04:01;;;;;;;17.80;3.70;;;;;;;;;;5045300;28;20408;-74
2023/10/12 13:06:28;;;;;;;20.05;4.00;;;;;;;;;;5017219;28;20408;-77
2023/10/12 13:08:54;;;;;;;20.95;3.60;;;;;;;;;;5011527;28;20421;-75
2023/10/12 13:11:22;;;;;;;20.02;4.60;;;;;;;;;;5006004;28;20424;-76
2023/10/12 13:13:48;;;;;;;21.07;4.87;;;;;;;;;;5010213;28;20421;-77
2023/10/12 13:16:15;;;;;;;18.90;3.70;;;;;;;;;;5005504;28;20420;-76
2023/10/12 13:18:48;;;;;;;19.80;4.13;;;;;;;;;;5009196;28;20428;-75
2023/10/12 13:21:17;;;;;;;22.33;3.47;;;;;;;;;;5010121;28;20935;-76
2023/10/12 13:23:45;;;;;;;19.00;3.15;;;;;;;;;;5039612;28;20455;-76
2023/10/12 13:26:13;;;;;;;17.97;3.70;;;;;;;;;;5010646;28;20416;-75
2023/10/12 13:28:41;;;;;;;21.88;4.18;;;;;;;;;;5011515;28;20896;-76
2023/10/12 13:31:10;;;;;;;20.40;3.40;;;;;;;;;;5010278;28;20412;-76
2023/10/12 13:33:38;;;;;;;21.10;3.60;;;;;;;;;;5011233;28;20470;-76
2023/10/12 13:36:04;;;;;;;20.63;3.50;;;;;;;;;;5009453;28;20435;-76
2023/10/12 13:38:36;;;;;;;20.08;3.67;;;;;;;;;;5010405;28;20420;-75
2023/10/12 13:41:03;;;;;;;17.70;3.03;;;;;;;;;;5041075;28;20435;-76
2023/10/12 13:43:34;;;;;;;21.80;3.90;;;;;;;;;;5011262;28;20895;-75
2023/10/12 13:46:08;;;;;;;20.58;3.85;;;;;;;;;;5009066;28;20436;-76
2023/10/12 13:48:38;;;;;;;18.40;3.50;;;;;;;;;;5041104;28;20474;-75
2023/10/12 13:51:12;;;;;;;18.15;3.25;;;;;;;;;;5004025;28;20420;-75
2023/10/12 13:53:41;;;;;;;17.23;3.40;;;;;;;;;;5009710;28;20459;-75
2023/10/12 13:56:08;;;;;;;22.47;3.97;;;;;;;;;;5011215;28;20425;-76
2023/10/12 13:58:36;;;;;;;19.30;3.70;;;;;;;;;;5011097;28;20420;-75
2023/10/12 14:01:03;;;;;;;22.38;4.35;;;;;;;;;;5010592;28;20751;-76
2023/10/12 14:03:38;;;;;;;20.40;3.60;;;;;;;;;;5042410;28;20508;-74
2023/10/12 14:06:08;;;;;;;18.25;3.47;;;;;;;;;;5026206;28;20933;-75
2023/10/12 14:08:40;;;;;;;18.20;3.40;;;;;;;;;;5019507;28;20923;-75
2023/10/12 14:11:12;;;;;;;19.00;3.85;;;;;;;;;;5007989;28;20420;-76
2023/10/12 14:13:39;;;;;;;17.80;3.30;;;;;;;;;;5006421;28;20552;-75
2023/10/12 14:16:07;;;;;;;19.02;3.70;;;;;;;;;;5012125;28;20439;-75
2023/10/12 14:18:34;;;;;;;19.75;3.60;;;;;;;;;;5012303;28;20424;-73
2023/10/12 14:21:00;;;;;;;18.02;3.58;;;;;;;;;;5010913;28;20539;-77
2023/10/12 14:23:29;;;;;;;21.02;3.22;;;;;;;;;;5009340;28;20580;-74
2023/10/12 14:26:00;;;;;;;18.88;3.80;;;;;;;;;;5009591;28;20917;-76
2023/10/12 14:28:34;;;;;;;18.58;3.75;;;;;;;;;;5009186;28;20487;-75
2023/10/12 14:31:01;;;;;;;18.23;3.92;;;;;;;;;;5006659;28;20790;-75
2023/10/12 14:33:31;;;;;;;20.60;4.90;;;;;;;;;;5009517;28;20456;-73
2023/10/12 14:35:58;;;;;;;19.10;3.70;;;;;;;;;;5015839;28;20431;-76
2023/10/12 14:38:25;;;;;;;19.45;3.78;;;;;;;;;;5013663;28;20420;-73
2023/10/12 14:40:51;;;;;;;18.70;3.60;;;;;;;;;;5045615;28;20404;-74
2023/10/12 14:43:21;;;;;;;18.90;3.50;;;;;;;;;;5010317;28;20500;-75
2023/10/12 14:45:55;;;;;;;20.23;3.65;;;;;;;;;;5010732;28;20416;-73
2023/10/12 14:48:23;;;;;;;20.60;3.67;;;;;;;;;;5003779;28;20485;-75
2023/10/12 14:50:57;;;;;;;18.58;3.80;;;;;;;;;;5007315;28;20731;-76
2023/10/12 14:53:27;;;;;;;18.85;3.50;;;;;;;;;;5010179;28;20452;-75
2023/10/12 14:55:54;;;;;;;17.70;3.40;;;;;;;;;;5013620;28;20460;-75
2023/10/12 14:58:21;;;;;;;20.08;4.30;;;;;;;;;;5012398;28;20431;-74
2023/10/12 15:00:50;;;;;;;18.87;4.27;;;;;;;;;;5013028;28;20920;-76
2023/10/12 15:03:21;;;;;;;19.73;4.00;;;;;;;;;;5011358;28;20417;-75
2023/10/12 15:05:51;;;;;;;22.92;4.55;;;;;;;;;;5046308;28;20411;-77
2023/10/12 15:08:18;;;;;;;19.88;3.80;;;;;;;;;;5005992;28;20951;-75
2023/10/12 15:10:46;;;;;;;19.92;3.70;;;;;;;;;;5011392;28;20731;-75
2023/10/12 15:13:13;;;;;;;18.40;4.20;;;;;;;;;;5010464;28;20866;-76
2023/10/12 15:15:45;;;;;;;18.63;4.18;;;;;;;;;;5012810;28;20418;-73
2023/10/12 15:18:17;;;;;;;20.67;4.20;;;;;;;;;;5013405;28;20408;-76
2023/10/12 15:20:48;;;;;;;19.42;3.60;;;;;;;;;;4995043;28;20771;-73
2023/10/12 15:23:16;;;;;;;20.27;3.60;;;;;;;;;;5013828;28;20455;-75
2023/10/12 15:25:43;;;;;;;19.08;3.70;;;;;;;;;;5012875;28;20440;-75
2023/10/12 15:28:10;;;;;;;18.52;4.50;;;;;;;;;;5028710;28;20758;-75
2023/10/12 15:30:37;;;;;;;18.55;3.75;;;;;;;;;;5012750;28;20467;-75
2023/10/12 15:33:04;;;;;;;21.92;4.60;;;;;;;;;;5012645;28;20499;-75
2023/10/12 15:35:32;;;;;;;19.60;3.90;;;;;;;;;;5011661;28;20503;-75
2023/10/12 15:37:59;;;;;;;18.50;3.90;;;;;;;;;;5010799;28;20416;-74
2023/10/12 15:40:26;;;;;;;21.30;4.80;;;;;;;;;;5011457;28;20765;-75
2023/10/12 15:42:53;;;;;;;19.58;3.50;;;;;;;;;;5013130;28;20455;-75
2023/10/12 15:45:20;;;;;;;19.75;3.53;;;;;;;;;;5009266;28;20523;-76
2023/10/12 15:47:48;;;;;;;18.55;3.97;;;;;;;;;;5010245;28;20421;-75
2023/10/12 15:50:15;;;;;;;18.60;3.90;;;;;;;;;;5042917;28;20417;-77
2023/10/12 15:52:43;;;;;;;20.75;3.20;;;;;;;;;;5010277;28;20414;-73
2023/10/12 15:55:12;;;;;;;17.50;4.00;;;;;;;;;;5012149;28;20504;-75
2023/10/12 15:57:38;;;;;;;18.98;3.60;;;;;;;;;;5012435;28;20858;-76
2023/10/12 16:00:08;;;;;;;18.80;3.92;;;;;;;;;;5011618;28;20411;-74
2023/10/12 16:02:38;;;;;;;19.83;4.10;;;;;;;;;;5001384;28;20409;-72
2023/10/12 16:05:06;;;;;;;19.30;4.15;;;;;;;;;;5007949;28;20470;-75
2023/10/12 16:07:33;;;;;;;18.77;3.90;;;;;;;;;;5023365;28;20422;-74
2023/10/12 16:10:05;;;;;;;18.73;4.18;;;;;;;;;;5010311;28;20960;-73
2023/10/12 16:12:32;;;;;;;19.20;3.58;;;;;;;;;;5008479;28;20416;-74
2023/10/12 16:14:58;;;;;;;19.33;3.60;;;;;;;;;;5012884;28;20520;-73
2023/10/12 16:17:25;;;;;;;19.75;4.13;;;;;;;;;;5032329;28;20429;-75
2023/10/12 16:19:52;;;;;;;20.13;3.72;;;;;;;;;;5012083;28;20478;-75
2023/10/12 16:22:18;;;;;;;18.98;3.90;;;;;;;;;;5010747;28;20893;-74
2023/10/12 16:24:45;;;;;;;19.20;3.95;;;;;;;;;;5011262;28;20405;-76
2023/10/12 16:27:13;;;;;;;19.35;4.40;;;;;;;;;;5009792;28;20405;-76
2023/10/12 16:29:40;;;;;;;21.08;3.60;;;;;;;;;;5010740;28;20431;-76
2023/10/12 16:32:25;;;;;;;18.50;4.30;;;;;;;;;;5039688;28;20411;-75
2023/10/12 16:34:52;;;;;;;19.20;4.10;;;;;;;;;;5012782;28;20413;-75
2023/10/12 16:37:21;;;;;;;17.35;3.72;;;;;;;;;;5043876;28;20416;-75